sensor_id;sensor_type;location;lat;lon;timestamp;temperature;humidity
4406;DHT22;2216;53.806;11.598;2022-11-03T00:01:44;7.00;77.00
4406;DHT22;2216;53.806;11.598;2022-11-03T00:04:14;7.00;77.20
4406;DHT22;2216;53.806;11.598;2022-11-03T00:06:42;6.90;76.90
4406;DHT22;2216;53.806;11.598;2022-11-03T00:09:10;7.00;76.90
4406;DHT22;2216;53.806;11.598;2022-11-03T00:11:39;6.90;76.80
4406;DHT22;2216;53.806;11.598;2022-11-03T00:14:06;7.00;76.90
4406;DHT22;2216;53.806;11.598;2022-11-03T00:16:33;6.90;76.80
4406;DHT22;2216;53.806;11.598;2022-11-03T00:18:59;6.90;76.80
4406;DHT22;2216;53.806;11.598;2022-11-03T00:21:25;6.90;76.80
4406;DHT22;2216;53.806;11.598;2022-11-03T00:23:51;6.90;76.80
4406;DHT22;2216;53.806;11.598;2022-11-03T00:26:22;6.90;76.80
4406;DHT22;2216;53.806;11.598;2022-11-03T00:28:54;6.90;76.80
4406;DHT22;2216;53.806;11.598;2022-11-03T00:31:32;6.90;76.70
4406;DHT22;2216;53.806;11.598;2022-11-03T00:34:00;6.90;76.70
4406;DHT22;2216;53.806;11.598;2022-11-03T00:36:28;6.90;76.80
4406;DHT22;2216;53.806;11.598;2022-11-03T00:38:55;6.80;76.80
4406;DHT22;2216;53.806;11.598;2022-11-03T00:41:22;6.80;76.70
4406;DHT22;2216;53.806;11.598;2022-11-03T00:43:49;6.80;76.80
4406;DHT22;2216;53.806;11.598;2022-11-03T00:46:16;6.80;76.80
4406;DHT22;2216;53.806;11.598;2022-11-03T00:48:42;6.80;76.80
4406;DHT22;2216;53.806;11.598;2022-11-03T00:53:39;6.80;76.80
4406;DHT22;2216;53.806;11.598;2022-11-03T00:56:17;6.80;76.80
4406;DHT22;2216;53.806;11.598;2022-11-03T00:58:43;6.80;76.70
4406;DHT22;2216;53.806;11.598;2022-11-03T01:03:47;6.80;76.70
4406;DHT22;2216;53.806;11.598;2022-11-03T01:06:35;6.70;76.60
4406;DHT22;2216;53.806;11.598;2022-11-03T01:09:15;6.70;76.60
4406;DHT22;2216;53.806;11.598;2022-11-03T01:11:41;6.70;76.50
4406;DHT22;2216;53.806;11.598;2022-11-03T01:14:12;6.70;76.50
4406;DHT22;2216;53.806;11.598;2022-11-03T01:16:40;6.70;76.60
4406;DHT22;2216;53.806;11.598;2022-11-03T01:19:06;6.60;76.50
4406;DHT22;2216;53.806;11.598;2022-11-03T01:21:32;6.70;76.70
4406;DHT22;2216;53.806;11.598;2022-11-03T01:24:02;6.70;76.70
4406;DHT22;2216;53.806;11.598;2022-11-03T01:26:30;6.60;76.60
4406;DHT22;2216;53.806;11.598;2022-11-03T01:28:57;6.60;76.70
4406;DHT22;2216;53.806;11.598;2022-11-03T01:31:25;6.60;76.80
4406;DHT22;2216;53.806;11.598;2022-11-03T01:33:53;6.60;76.70
4406;DHT22;2216;53.806;11.598;2022-11-03T01:36:20;6.60;76.70
4406;DHT22;2216;53.806;11.598;2022-11-03T01:38:46;6.60;76.70
4406;DHT22;2216;53.806;11.598;2022-11-03T01:41:16;6.60;76.70
4406;DHT22;2216;53.806;11.598;2022-11-03T01:43:49;6.60;76.80
4406;DHT22;2216;53.806;11.598;2022-11-03T01:46:22;6.60;76.80
4406;DHT22;2216;53.806;11.598;2022-11-03T01:49:10;6.60;76.80
4406;DHT22;2216;53.806;11.598;2022-11-03T01:51:44;6.60;77.50
4406;DHT22;2216;53.806;11.598;2022-11-03T01:54:18;6.60;76.70
4406;DHT22;2216;53.806;11.598;2022-11-03T01:56:44;6.60;76.70
4406;DHT22;2216;53.806;11.598;2022-11-03T01:59:17;6.60;76.70
4406;DHT22;2216;53.806;11.598;2022-11-03T02:01:46;6.50;76.70
4406;DHT22;2216;53.806;11.598;2022-11-03T02:04:18;6.50;76.80
4406;DHT22;2216;53.806;11.598;2022-11-03T02:06:49;6.60;76.90
4406;DHT22;2216;53.806;11.598;2022-11-03T02:09:19;6.50;76.90
4406;DHT22;2216;53.806;11.598;2022-11-03T02:11:45;6.50;76.90
4406;DHT22;2216;53.806;11.598;2022-11-03T02:14:30;6.60;77.00
4406;DHT22;2216;53.806;11.598;2022-11-03T02:16:59;6.60;77.10
4406;DHT22;2216;53.806;11.598;2022-11-03T02:19:35;6.60;77.10
4406;DHT22;2216;53.806;11.598;2022-11-03T02:22:28;6.60;77.20
4406;DHT22;2216;53.806;11.598;2022-11-03T02:25:32;6.70;77.20
4406;DHT22;2216;53.806;11.598;2022-11-03T02:28:07;6.70;77.20
4406;DHT22;2216;53.806;11.598;2022-11-03T02:33:42;6.70;77.20
4406;DHT22;2216;53.806;11.598;2022-11-03T02:36:28;6.70;77.20
4406;DHT22;2216;53.806;11.598;2022-11-03T02:39:01;6.70;77.10
4406;DHT22;2216;53.806;11.598;2022-11-03T02:41:34;6.70;77.00
4406;DHT22;2216;53.806;11.598;2022-11-03T02:44:03;6.70;77.00
4406;DHT22;2216;53.806;11.598;2022-11-03T02:46:31;6.70;77.10
4406;DHT22;2216;53.806;11.598;2022-11-03T02:48:57;6.70;77.00
4406;DHT22;2216;53.806;11.598;2022-11-03T02:51:25;6.70;77.00
4406;DHT22;2216;53.806;11.598;2022-11-03T02:54:13;6.70;77.00
4406;DHT22;2216;53.806;11.598;2022-11-03T02:56:46;6.70;77.00
4406;DHT22;2216;53.806;11.598;2022-11-03T02:59:33;6.70;77.20
4406;DHT22;2216;53.806;11.598;2022-11-03T03:02:09;6.80;77.40
4406;DHT22;2216;53.806;11.598;2022-11-03T03:04:44;6.80;77.50
4406;DHT22;2216;53.806;11.598;2022-11-03T03:07:16;6.90;77.60
4406;DHT22;2216;53.806;11.598;2022-11-03T03:10:02;6.90;78.40
4406;DHT22;2216;53.806;11.598;2022-11-03T03:12:36;6.90;77.70
4406;DHT22;2216;53.806;11.598;2022-11-03T03:15:06;7.00;77.80
4406;DHT22;2216;53.806;11.598;2022-11-03T03:21:02;7.10;77.80
4406;DHT22;2216;53.806;11.598;2022-11-03T03:23:34;7.10;77.60
4406;DHT22;2216;53.806;11.598;2022-11-03T03:26:12;7.20;77.60
4406;DHT22;2216;53.806;11.598;2022-11-03T03:28:51;7.20;77.70
4406;DHT22;2216;53.806;11.598;2022-11-03T03:31:19;7.20;77.50
4406;DHT22;2216;53.806;11.598;2022-11-03T03:33:48;7.20;77.50
4406;DHT22;2216;53.806;11.598;2022-11-03T03:36:17;7.30;77.60
4406;DHT22;2216;53.806;11.598;2022-11-03T03:38:47;7.20;77.50
4406;DHT22;2216;53.806;11.598;2022-11-03T03:41:21;7.30;77.60
4406;DHT22;2216;53.806;11.598;2022-11-03T03:43:50;7.30;77.50
4406;DHT22;2216;53.806;11.598;2022-11-03T03:46:20;7.40;77.70
4406;DHT22;2216;53.806;11.598;2022-11-03T03:48:46;7.40;77.70
4406;DHT22;2216;53.806;11.598;2022-11-03T03:51:13;7.50;77.70
4406;DHT22;2216;53.806;11.598;2022-11-03T03:53:41;7.50;77.60
4406;DHT22;2216;53.806;11.598;2022-11-03T03:56:06;7.50;77.50
4406;DHT22;2216;53.806;11.598;2022-11-03T03:58:32;7.50;77.50
4406;DHT22;2216;53.806;11.598;2022-11-03T04:00:58;7.60;77.60
4406;DHT22;2216;53.806;11.598;2022-11-03T04:03:25;7.60;77.70
4406;DHT22;2216;53.806;11.598;2022-11-03T04:05:53;7.60;77.70
4406;DHT22;2216;53.806;11.598;2022-11-03T04:08:18;7.70;77.70
4406;DHT22;2216;53.806;11.598;2022-11-03T04:10:45;7.70;77.70
4406;DHT22;2216;53.806;11.598;2022-11-03T04:13:32;7.70;77.60
4406;DHT22;2216;53.806;11.598;2022-11-03T04:16:16;7.70;77.60
4406;DHT22;2216;53.806;11.598;2022-11-03T04:19:01;7.80;77.50
4406;DHT22;2216;53.806;11.598;2022-11-03T04:21:45;7.80;77.60
4406;DHT22;2216;53.806;11.598;2022-11-03T04:24:29;7.80;77.60
4406;DHT22;2216;53.806;11.598;2022-11-03T04:27:00;7.80;77.50
4406;DHT22;2216;53.806;11.598;2022-11-03T04:29:37;7.80;77.50
4406;DHT22;2216;53.806;11.598;2022-11-03T04:32:13;7.90;77.50
4406;DHT22;2216;53.806;11.598;2022-11-03T04:34:40;7.90;77.50
4406;DHT22;2216;53.806;11.598;2022-11-03T04:37:11;7.90;77.40
4406;DHT22;2216;53.806;11.598;2022-11-03T04:39:38;7.90;77.40
4406;DHT22;2216;53.806;11.598;2022-11-03T04:42:30;8.00;77.90
4406;DHT22;2216;53.806;11.598;2022-11-03T04:44:58;8.00;77.30
4406;DHT22;2216;53.806;11.598;2022-11-03T04:47:25;7.90;77.20
4406;DHT22;2216;53.806;11.598;2022-11-03T04:49:51;8.00;77.20
4406;DHT22;2216;53.806;11.598;2022-11-03T04:52:19;7.90;77.10
4406;DHT22;2216;53.806;11.598;2022-11-03T04:54:48;7.90;77.10
4406;DHT22;2216;53.806;11.598;2022-11-03T04:57:16;8.00;77.20
4406;DHT22;2216;53.806;11.598;2022-11-03T04:59:44;8.00;77.10
4406;DHT22;2216;53.806;11.598;2022-11-03T05:02:18;8.00;77.10
4406;DHT22;2216;53.806;11.598;2022-11-03T05:04:44;7.90;77.00
4406;DHT22;2216;53.806;11.598;2022-11-03T05:07:22;7.90;77.00
4406;DHT22;2216;53.806;11.598;2022-11-03T05:09:52;7.90;77.00
4406;DHT22;2216;53.806;11.598;2022-11-03T05:12:18;7.90;76.90
4406;DHT22;2216;53.806;11.598;2022-11-03T05:14:45;7.90;76.90
4406;DHT22;2216;53.806;11.598;2022-11-03T05:17:25;7.90;76.90
4406;DHT22;2216;53.806;11.598;2022-11-03T05:19:59;7.80;76.80
4406;DHT22;2216;53.806;11.598;2022-11-03T05:22:30;7.80;76.70
4406;DHT22;2216;53.806;11.598;2022-11-03T05:25:02;7.80;76.70
4406;DHT22;2216;53.806;11.598;2022-11-03T05:27:43;7.80;76.70
4406;DHT22;2216;53.806;11.598;2022-11-03T05:30:12;7.70;76.70
4406;DHT22;2216;53.806;11.598;2022-11-03T05:32:38;7.70;76.60
4406;DHT22;2216;53.806;11.598;2022-11-03T05:35:15;7.70;76.60
4406;DHT22;2216;53.806;11.598;2022-11-03T05:37:43;7.60;76.60
4406;DHT22;2216;53.806;11.598;2022-11-03T05:40:29;7.60;76.60
4406;DHT22;2216;53.806;11.598;2022-11-03T05:42:58;7.60;76.70
4406;DHT22;2216;53.806;11.598;2022-11-03T05:45:29;7.50;76.70
4406;DHT22;2216;53.806;11.598;2022-11-03T05:47:57;7.50;76.70
4406;DHT22;2216;53.806;11.598;2022-11-03T05:50:27;7.50;76.70
4406;DHT22;2216;53.806;11.598;2022-11-03T05:52:57;7.50;76.80
4406;DHT22;2216;53.806;11.598;2022-11-03T05:55:30;7.50;76.80
4406;DHT22;2216;53.806;11.598;2022-11-03T05:58:11;7.50;76.90
4406;DHT22;2216;53.806;11.598;2022-11-03T06:00:52;7.50;76.90
4406;DHT22;2216;53.806;11.598;2022-11-03T06:03:23;7.50;76.90
4406;DHT22;2216;53.806;11.598;2022-11-03T06:05:51;7.40;76.90
4406;DHT22;2216;53.806;11.598;2022-11-03T06:08:20;7.40;76.90
4406;DHT22;2216;53.806;11.598;2022-11-03T06:10:52;7.40;77.00
4406;DHT22;2216;53.806;11.598;2022-11-03T06:13:25;7.40;77.00
4406;DHT22;2216;53.806;11.598;2022-11-03T06:16:01;7.40;77.00
4406;DHT22;2216;53.806;11.598;2022-11-03T06:18:35;7.40;77.00
4406;DHT22;2216;53.806;11.598;2022-11-03T06:21:15;7.40;77.00
4406;DHT22;2216;53.806;11.598;2022-11-03T06:23:44;7.40;77.00
4406;DHT22;2216;53.806;11.598;2022-11-03T06:26:21;7.40;77.00
4406;DHT22;2216;53.806;11.598;2022-11-03T06:28:50;7.40;76.90
4406;DHT22;2216;53.806;11.598;2022-11-03T06:31:26;7.40;76.90
4406;DHT22;2216;53.806;11.598;2022-11-03T06:33:54;7.30;76.80
4406;DHT22;2216;53.806;11.598;2022-11-03T06:36:25;7.40;76.90
4406;DHT22;2216;53.806;11.598;2022-11-03T06:39:34;7.40;76.90
4406;DHT22;2216;53.806;11.598;2022-11-03T06:42:10;7.30;76.80
4406;DHT22;2216;53.806;11.598;2022-11-03T06:44:39;7.30;76.80
4406;DHT22;2216;53.806;11.598;2022-11-03T06:47:20;7.30;76.80
4406;DHT22;2216;53.806;11.598;2022-11-03T06:49:52;7.30;77.00
4406;DHT22;2216;53.806;11.598;2022-11-03T06:52:30;7.30;76.90
4406;DHT22;2216;53.806;11.598;2022-11-03T06:58:19;7.30;77.00
4406;DHT22;2216;53.806;11.598;2022-11-03T07:00:49;7.30;77.10
4406;DHT22;2216;53.806;11.598;2022-11-03T07:03:26;7.30;77.20
4406;DHT22;2216;53.806;11.598;2022-11-03T07:08:50;7.30;77.30
4406;DHT22;2216;53.806;11.598;2022-11-03T07:11:20;7.30;77.40
4406;DHT22;2216;53.806;11.598;2022-11-03T07:13:53;7.30;77.40
4406;DHT22;2216;53.806;11.598;2022-11-03T07:16:34;7.30;77.50
4406;DHT22;2216;53.806;11.598;2022-11-03T07:19:11;7.40;77.50
4406;DHT22;2216;53.806;11.598;2022-11-03T07:22:00;7.40;77.60
4406;DHT22;2216;53.806;11.598;2022-11-03T07:24:32;7.50;77.60
4406;DHT22;2216;53.806;11.598;2022-11-03T07:29:46;7.50;77.70
4406;DHT22;2216;53.806;11.598;2022-11-03T07:32:15;7.60;77.80
4406;DHT22;2216;53.806;11.598;2022-11-03T07:34:44;7.60;77.70
4406;DHT22;2216;53.806;11.598;2022-11-03T07:37:22;7.60;77.80
4406;DHT22;2216;53.806;11.598;2022-11-03T07:39:49;7.70;77.90
4406;DHT22;2216;53.806;11.598;2022-11-03T07:42:23;7.70;77.80
4406;DHT22;2216;53.806;11.598;2022-11-03T07:44:50;7.80;77.90
4406;DHT22;2216;53.806;11.598;2022-11-03T07:47:24;7.80;77.90
4406;DHT22;2216;53.806;11.598;2022-11-03T07:49:51;7.80;77.80
4406;DHT22;2216;53.806;11.598;2022-11-03T07:52:22;7.90;77.90
4406;DHT22;2216;53.806;11.598;2022-11-03T07:54:50;7.90;77.80
4406;DHT22;2216;53.806;11.598;2022-11-03T07:59:51;8.00;77.90
4406;DHT22;2216;53.806;11.598;2022-11-03T08:02:40;8.10;77.90
4406;DHT22;2216;53.806;11.598;2022-11-03T08:05:14;8.20;78.00
4406;DHT22;2216;53.806;11.598;2022-11-03T08:07:40;8.20;78.00
4406;DHT22;2216;53.806;11.598;2022-11-03T08:10:06;8.30;78.00
4406;DHT22;2216;53.806;11.598;2022-11-03T08:12:32;8.30;78.00
4406;DHT22;2216;53.806;11.598;2022-11-03T08:14:58;8.40;78.10
4406;DHT22;2216;53.806;11.598;2022-11-03T08:17:23;8.40;78.10
4406;DHT22;2216;53.806;11.598;2022-11-03T08:19:49;8.50;78.10
4406;DHT22;2216;53.806;11.598;2022-11-03T08:22:15;8.50;78.00
4406;DHT22;2216;53.806;11.598;2022-11-03T08:24:40;8.60;78.10
4406;DHT22;2216;53.806;11.598;2022-11-03T08:27:06;8.60;78.10
4406;DHT22;2216;53.806;11.598;2022-11-03T08:29:32;8.70;78.10
4406;DHT22;2216;53.806;11.598;2022-11-03T08:31:57;8.70;78.10
4406;DHT22;2216;53.806;11.598;2022-11-03T08:34:23;8.80;78.60
4406;DHT22;2216;53.806;11.598;2022-11-03T08:36:49;8.90;78.10
4406;DHT22;2216;53.806;11.598;2022-11-03T08:39:14;8.90;78.10
4406;DHT22;2216;53.806;11.598;2022-11-03T08:41:40;9.00;78.20
4406;DHT22;2216;53.806;11.598;2022-11-03T08:44:06;9.10;78.30
4406;DHT22;2216;53.806;11.598;2022-11-03T08:46:31;9.20;78.30
4406;DHT22;2216;53.806;11.598;2022-11-03T08:48:57;9.20;78.30
4406;DHT22;2216;53.806;11.598;2022-11-03T08:51:23;9.30;78.30
4406;DHT22;2216;53.806;11.598;2022-11-03T08:53:48;9.30;78.20
4406;DHT22;2216;53.806;11.598;2022-11-03T08:56:18;9.40;78.30
4406;DHT22;2216;53.806;11.598;2022-11-03T08:58:44;9.50;78.40
4406;DHT22;2216;53.806;11.598;2022-11-03T09:01:11;9.60;78.40
4406;DHT22;2216;53.806;11.598;2022-11-03T09:03:37;9.70;78.40
4406;DHT22;2216;53.806;11.598;2022-11-03T09:06:03;9.70;78.30
4406;DHT22;2216;53.806;11.598;2022-11-03T09:08:29;9.80;78.30
4406;DHT22;2216;53.806;11.598;2022-11-03T09:10:55;9.90;78.30
4406;DHT22;2216;53.806;11.598;2022-11-03T09:13:20;10.00;78.30
4406;DHT22;2216;53.806;11.598;2022-11-03T09:15:46;10.10;78.40
4406;DHT22;2216;53.806;11.598;2022-11-03T09:18:12;10.10;78.40
4406;DHT22;2216;53.806;11.598;2022-11-03T09:20:37;10.20;78.40
4406;DHT22;2216;53.806;11.598;2022-11-03T09:23:03;10.30;78.40
4406;DHT22;2216;53.806;11.598;2022-11-03T09:25:29;10.40;78.30
4406;DHT22;2216;53.806;11.598;2022-11-03T09:27:54;10.50;78.30
4406;DHT22;2216;53.806;11.598;2022-11-03T09:30:20;10.50;78.20
4406;DHT22;2216;53.806;11.598;2022-11-03T09:32:46;10.60;78.20
4406;DHT22;2216;53.806;11.598;2022-11-03T09:35:11;10.70;78.20
4406;DHT22;2216;53.806;11.598;2022-11-03T09:37:39;10.70;78.10
4406;DHT22;2216;53.806;11.598;2022-11-03T09:40:05;10.80;78.00
4406;DHT22;2216;53.806;11.598;2022-11-03T09:42:33;10.80;78.00
4406;DHT22;2216;53.806;11.598;2022-11-03T09:45:00;10.90;78.00
4406;DHT22;2216;53.806;11.598;2022-11-03T09:47:30;11.00;77.90
4406;DHT22;2216;53.806;11.598;2022-11-03T09:49:57;11.00;78.00
4406;DHT22;2216;53.806;11.598;2022-11-03T09:52:23;11.10;78.10
4406;DHT22;2216;53.806;11.598;2022-11-03T09:54:51;11.20;78.10
4406;DHT22;2216;53.806;11.598;2022-11-03T09:57:20;11.30;78.00
4406;DHT22;2216;53.806;11.598;2022-11-03T09:59:47;11.30;77.90
4406;DHT22;2216;53.806;11.598;2022-11-03T10:02:34;11.40;77.90
4406;DHT22;2216;53.806;11.598;2022-11-03T10:05:03;11.40;77.90
4406;DHT22;2216;53.806;11.598;2022-11-03T10:07:29;11.50;77.90
4406;DHT22;2216;53.806;11.598;2022-11-03T10:09:56;11.50;77.90
4406;DHT22;2216;53.806;11.598;2022-11-03T10:12:23;11.60;77.80
4406;DHT22;2216;53.806;11.598;2022-11-03T10:14:50;11.60;77.60
4406;DHT22;2216;53.806;11.598;2022-11-03T10:17:18;11.60;77.60
4406;DHT22;2216;53.806;11.598;2022-11-03T10:19:48;11.70;77.60
4406;DHT22;2216;53.806;11.598;2022-11-03T10:22:16;11.70;77.50
4406;DHT22;2216;53.806;11.598;2022-11-03T10:24:43;11.70;77.50
4406;DHT22;2216;53.806;11.598;2022-11-03T10:27:23;11.80;77.60
4406;DHT22;2216;53.806;11.598;2022-11-03T10:30:05;11.80;77.50
4406;DHT22;2216;53.806;11.598;2022-11-03T10:32:35;11.80;77.30
4406;DHT22;2216;53.806;11.598;2022-11-03T10:35:01;11.80;77.20
4406;DHT22;2216;53.806;11.598;2022-11-03T10:37:28;11.80;77.20
4406;DHT22;2216;53.806;11.598;2022-11-03T10:39:55;11.90;77.20
4406;DHT22;2216;53.806;11.598;2022-11-03T10:42:27;11.90;77.20
4406;DHT22;2216;53.806;11.598;2022-11-03T10:45:16;11.90;77.10
4406;DHT22;2216;53.806;11.598;2022-11-03T10:47:43;11.90;77.10
4406;DHT22;2216;53.806;11.598;2022-11-03T10:50:21;11.90;77.10
4406;DHT22;2216;53.806;11.598;2022-11-03T10:52:48;11.90;77.00
4406;DHT22;2216;53.806;11.598;2022-11-03T10:55:14;11.90;77.00
4406;DHT22;2216;53.806;11.598;2022-11-03T10:57:41;11.90;77.20
4406;DHT22;2216;53.806;11.598;2022-11-03T11:00:12;11.90;77.20
4406;DHT22;2216;53.806;11.598;2022-11-03T11:02:41;11.90;77.10
4406;DHT22;2216;53.806;11.598;2022-11-03T11:05:13;12.00;77.00
4406;DHT22;2216;53.806;11.598;2022-11-03T11:07:43;12.00;77.30
4406;DHT22;2216;53.806;11.598;2022-11-03T11:10:14;12.00;77.40
4406;DHT22;2216;53.806;11.598;2022-11-03T11:15:58;12.10;77.40
4406;DHT22;2216;53.806;11.598;2022-11-03T11:20:58;12.20;77.30
4406;DHT22;2216;53.806;11.598;2022-11-03T11:28:42;12.40;77.70
4406;DHT22;2216;53.806;11.598;2022-11-03T11:31:30;12.40;77.80
4406;DHT22;2216;53.806;11.598;2022-11-03T11:36:38;12.70;78.20
4406;DHT22;2216;53.806;11.598;2022-11-03T11:47:27;13.10;77.40
4406;DHT22;2216;53.806;11.598;2022-11-03T11:54:57;13.30;77.30
4406;DHT22;2216;53.806;11.598;2022-11-03T11:57:23;13.40;76.50
4406;DHT22;2216;53.806;11.598;2022-11-03T11:59:49;13.40;76.80
4406;DHT22;2216;53.806;11.598;2022-11-03T12:02:22;13.40;76.40
4406;DHT22;2216;53.806;11.598;2022-11-03T12:04:56;13.40;76.90
4406;DHT22;2216;53.806;11.598;2022-11-03T12:07:32;13.50;76.80
4406;DHT22;2216;53.806;11.598;2022-11-03T12:10:08;13.50;77.00
4406;DHT22;2216;53.806;11.598;2022-11-03T12:12:38;13.60;76.40
4406;DHT22;2216;53.806;11.598;2022-11-03T12:15:04;13.60;76.70
4406;DHT22;2216;53.806;11.598;2022-11-03T12:17:31;13.60;76.90
4406;DHT22;2216;53.806;11.598;2022-11-03T12:19:57;13.70;76.90
4406;DHT22;2216;53.806;11.598;2022-11-03T12:24:56;13.70;76.80
4406;DHT22;2216;53.806;11.598;2022-11-03T12:29:55;13.70;76.60
4406;DHT22;2216;53.806;11.598;2022-11-03T12:32:22;13.70;76.60
4406;DHT22;2216;53.806;11.598;2022-11-03T12:34:48;13.70;76.60
4406;DHT22;2216;53.806;11.598;2022-11-03T12:37:14;13.70;76.60
4406;DHT22;2216;53.806;11.598;2022-11-03T12:39:40;13.70;76.60
4406;DHT22;2216;53.806;11.598;2022-11-03T12:42:06;13.70;76.60
4406;DHT22;2216;53.806;11.598;2022-11-03T12:44:32;13.70;76.50
4406;DHT22;2216;53.806;11.598;2022-11-03T12:46:58;13.70;76.40
4406;DHT22;2216;53.806;11.598;2022-11-03T12:49:24;13.70;77.10
4406;DHT22;2216;53.806;11.598;2022-11-03T12:51:50;13.70;76.40
4406;DHT22;2216;53.806;11.598;2022-11-03T12:54:16;13.70;76.40
4406;DHT22;2216;53.806;11.598;2022-11-03T12:56:41;13.70;76.30
4406;DHT22;2216;53.806;11.598;2022-11-03T12:59:07;13.60;76.30
4406;DHT22;2216;53.806;11.598;2022-11-03T13:01:33;13.60;76.40
4406;DHT22;2216;53.806;11.598;2022-11-03T13:03:59;13.60;76.40
4406;DHT22;2216;53.806;11.598;2022-11-03T13:06:25;13.60;76.30
4406;DHT22;2216;53.806;11.598;2022-11-03T13:08:51;13.60;76.40
4406;DHT22;2216;53.806;11.598;2022-11-03T13:11:17;13.60;76.30
4406;DHT22;2216;53.806;11.598;2022-11-03T13:14:01;13.60;76.40
4406;DHT22;2216;53.806;11.598;2022-11-03T13:16:29;13.60;76.30
4406;DHT22;2216;53.806;11.598;2022-11-03T13:18:54;13.50;76.30
4406;DHT22;2216;53.806;11.598;2022-11-03T13:21:20;13.60;76.40
4406;DHT22;2216;53.806;11.598;2022-11-03T13:23:46;13.60;76.50
4406;DHT22;2216;53.806;11.598;2022-11-03T13:26:11;13.60;76.50
4406;DHT22;2216;53.806;11.598;2022-11-03T13:28:37;13.60;76.50
4406;DHT22;2216;53.806;11.598;2022-11-03T13:31:03;13.50;76.30
4406;DHT22;2216;53.806;11.598;2022-11-03T13:33:29;13.50;76.30
4406;DHT22;2216;53.806;11.598;2022-11-03T13:35:54;13.50;76.30
4406;DHT22;2216;53.806;11.598;2022-11-03T13:38:20;13.50;76.20
4406;DHT22;2216;53.806;11.598;2022-11-03T13:40:46;13.40;76.30
4406;DHT22;2216;53.806;11.598;2022-11-03T13:43:12;13.40;76.10
4406;DHT22;2216;53.806;11.598;2022-11-03T13:45:38;13.40;76.20
4406;DHT22;2216;53.806;11.598;2022-11-03T13:48:03;13.30;76.20
4406;DHT22;2216;53.806;11.598;2022-11-03T13:50:29;13.30;76.20
4406;DHT22;2216;53.806;11.598;2022-11-03T13:52:55;13.30;76.10
4406;DHT22;2216;53.806;11.598;2022-11-03T13:55:20;13.30;76.90
4406;DHT22;2216;53.806;11.598;2022-11-03T13:57:47;13.20;76.20
4406;DHT22;2216;53.806;11.598;2022-11-03T14:00:13;13.20;76.20
4406;DHT22;2216;53.806;11.598;2022-11-03T14:02:41;13.20;76.20
4406;DHT22;2216;53.806;11.598;2022-11-03T14:05:07;13.20;76.20
4406;DHT22;2216;53.806;11.598;2022-11-03T14:07:34;13.20;76.30
4406;DHT22;2216;53.806;11.598;2022-11-03T14:10:00;13.10;76.20
4406;DHT22;2216;53.806;11.598;2022-11-03T14:12:25;13.10;76.20
4406;DHT22;2216;53.806;11.598;2022-11-03T14:15:00;13.10;76.20
4406;DHT22;2216;53.806;11.598;2022-11-03T14:17:28;13.10;76.10
4406;DHT22;2216;53.806;11.598;2022-11-03T14:19:54;13.00;76.00
4406;DHT22;2216;53.806;11.598;2022-11-03T14:22:20;13.00;76.10
4406;DHT22;2216;53.806;11.598;2022-11-03T14:24:46;12.90;76.00
4406;DHT22;2216;53.806;11.598;2022-11-03T14:27:12;12.90;76.10
4406;DHT22;2216;53.806;11.598;2022-11-03T14:29:40;12.90;76.10
4406;DHT22;2216;53.806;11.598;2022-11-03T14:32:08;12.80;76.10
4406;DHT22;2216;53.806;11.598;2022-11-03T14:34:34;12.80;76.10
4406;DHT22;2216;53.806;11.598;2022-11-03T14:36:59;12.80;76.20
4406;DHT22;2216;53.806;11.598;2022-11-03T14:39:25;12.80;76.20
4406;DHT22;2216;53.806;11.598;2022-11-03T14:41:51;12.70;76.20
4406;DHT22;2216;53.806;11.598;2022-11-03T14:44:36;12.70;76.20
4406;DHT22;2216;53.806;11.598;2022-11-03T14:47:05;12.70;76.10
4406;DHT22;2216;53.806;11.598;2022-11-03T14:49:32;12.70;76.20
4406;DHT22;2216;53.806;11.598;2022-11-03T14:52:00;12.70;76.20
4406;DHT22;2216;53.806;11.598;2022-11-03T14:54:27;12.60;76.10
4406;DHT22;2216;53.806;11.598;2022-11-03T14:56:54;12.60;76.10
4406;DHT22;2216;53.806;11.598;2022-11-03T14:59:20;12.50;75.90
4406;DHT22;2216;53.806;11.598;2022-11-03T15:01:46;12.50;76.10
4406;DHT22;2216;53.806;11.598;2022-11-03T15:04:13;12.50;76.10
4406;DHT22;2216;53.806;11.598;2022-11-03T15:06:39;12.50;76.10
4406;DHT22;2216;53.806;11.598;2022-11-03T15:09:06;12.40;76.00
4406;DHT22;2216;53.806;11.598;2022-11-03T15:11:32;12.40;76.10
4406;DHT22;2216;53.806;11.598;2022-11-03T15:13:58;12.40;76.10
4406;DHT22;2216;53.806;11.598;2022-11-03T15:16:24;12.30;76.00
4406;DHT22;2216;53.806;11.598;2022-11-03T15:18:50;12.30;76.00
4406;DHT22;2216;53.806;11.598;2022-11-03T15:21:16;12.20;76.00
4406;DHT22;2216;53.806;11.598;2022-11-03T15:23:42;12.20;76.10
4406;DHT22;2216;53.806;11.598;2022-11-03T15:26:08;12.20;76.10
4406;DHT22;2216;53.806;11.598;2022-11-03T15:28:34;12.10;76.10
4406;DHT22;2216;53.806;11.598;2022-11-03T15:31:00;12.10;76.10
4406;DHT22;2216;53.806;11.598;2022-11-03T15:33:26;12.10;76.10
4406;DHT22;2216;53.806;11.598;2022-11-03T15:35:51;12.10;76.10
4406;DHT22;2216;53.806;11.598;2022-11-03T15:38:17;11.90;76.00
4406;DHT22;2216;53.806;11.598;2022-11-03T15:40:43;12.00;76.10
4406;DHT22;2216;53.806;11.598;2022-11-03T15:43:10;11.90;76.10
4406;DHT22;2216;53.806;11.598;2022-11-03T15:45:35;11.90;76.10
4406;DHT22;2216;53.806;11.598;2022-11-03T15:48:01;11.90;76.10
4406;DHT22;2216;53.806;11.598;2022-11-03T15:50:27;11.80;76.10
4406;DHT22;2216;53.806;11.598;2022-11-03T15:52:53;11.80;76.10
4406;DHT22;2216;53.806;11.598;2022-11-03T15:55:19;11.80;76.20
4406;DHT22;2216;53.806;11.598;2022-11-03T15:57:46;11.70;76.20
4406;DHT22;2216;53.806;11.598;2022-11-03T16:00:13;11.70;76.20
4406;DHT22;2216;53.806;11.598;2022-11-03T16:02:39;11.70;76.20
4406;DHT22;2216;53.806;11.598;2022-11-03T16:05:05;11.70;76.20
4406;DHT22;2216;53.806;11.598;2022-11-03T16:07:31;11.60;76.20
4406;DHT22;2216;53.806;11.598;2022-11-03T16:09:57;11.60;76.30
4406;DHT22;2216;53.806;11.598;2022-11-03T16:12:23;11.60;76.30
4406;DHT22;2216;53.806;11.598;2022-11-03T16:14:50;11.50;76.30
4406;DHT22;2216;53.806;11.598;2022-11-03T16:17:16;11.50;76.30
4406;DHT22;2216;53.806;11.598;2022-11-03T16:19:42;11.50;76.40
4406;DHT22;2216;53.806;11.598;2022-11-03T16:22:07;11.50;76.40
4406;DHT22;2216;53.806;11.598;2022-11-03T16:24:33;11.50;77.10
4406;DHT22;2216;53.806;11.598;2022-11-03T16:26:59;11.40;76.40
4406;DHT22;2216;53.806;11.598;2022-11-03T16:29:25;11.40;76.40
4406;DHT22;2216;53.806;11.598;2022-11-03T16:31:51;11.40;76.40
4406;DHT22;2216;53.806;11.598;2022-11-03T16:34:16;11.40;76.40
4406;DHT22;2216;53.806;11.598;2022-11-03T16:36:42;11.40;76.50
4406;DHT22;2216;53.806;11.598;2022-11-03T16:39:08;11.40;76.50
4406;DHT22;2216;53.806;11.598;2022-11-03T16:41:35;11.40;76.50
4406;DHT22;2216;53.806;11.598;2022-11-03T16:44:01;11.40;76.50
4406;DHT22;2216;53.806;11.598;2022-11-03T16:46:27;11.30;76.40
4406;DHT22;2216;53.806;11.598;2022-11-03T16:48:52;11.30;76.40
4406;DHT22;2216;53.806;11.598;2022-11-03T16:51:18;11.30;76.40
4406;DHT22;2216;53.806;11.598;2022-11-03T16:53:44;11.30;76.40
4406;DHT22;2216;53.806;11.598;2022-11-03T16:56:09;11.20;76.30
4406;DHT22;2216;53.806;11.598;2022-11-03T16:58:35;11.20;76.30
4406;DHT22;2216;53.806;11.598;2022-11-03T17:01:01;11.20;76.30
4406;DHT22;2216;53.806;11.598;2022-11-03T17:03:26;11.20;76.30
4406;DHT22;2216;53.806;11.598;2022-11-03T17:05:52;11.10;76.30